createdAt,value
2023-04-27T00:02:12.931Z,50.89
2023-04-27T00:05:22.623Z,51.32
2023-04-27T00:08:28.171Z,50.63
2023-04-27T00:12:15.371Z,51.42
2023-04-27T00:15:39.795Z,50.85
2023-04-27T00:18:47.100Z,51.98
2023-04-27T00:21:55.455Z,51.26
2023-04-27T00:25:01.874Z,51.52
2023-04-27T00:28:08.105Z,51.58
2023-04-27T00:31:14.457Z,51.16
2023-04-27T00:34:19.984Z,51.75
2023-04-27T00:37:29.960Z,51.94
2023-04-27T00:40:35.727Z,52.00
2023-04-27T00:43:47.314Z,52.41
2023-04-27T00:46:53.046Z,52.20
2023-04-27T00:49:59.632Z,52.94
2023-04-27T00:53:09.823Z,53.21
2023-04-27T00:56:16.699Z,53.02
2023-04-27T00:59:23.565Z,53.84
2023-04-27T01:02:33.201Z,52.82
2023-04-27T01:05:41.081Z,52.75
2023-04-27T01:08:50.320Z,54.05
2023-04-27T01:11:56.309Z,52.75
2023-04-27T01:15:03.299Z,53.65
2023-04-27T01:18:09.658Z,54.35
2023-04-27T01:21:16.209Z,53.70
2023-04-27T01:24:24.428Z,54.07
2023-04-27T01:27:30.773Z,54.05
2023-04-27T01:30:36.278Z,53.96
2023-04-27T01:33:43.229Z,53.70
2023-04-27T01:36:48.875Z,53.61
2023-04-27T01:39:58.278Z,53.92
2023-04-27T01:43:04.101Z,54.92
2023-04-27T01:46:11.845Z,54.73
2023-04-27T01:49:17.687Z,54.83
2023-04-27T01:52:24.002Z,54.42
2023-04-27T01:55:32.482Z,54.80
2023-04-27T01:58:38.853Z,54.46
2023-04-27T02:01:44.365Z,55.03
2023-04-27T02:04:51.056Z,54.89
2023-04-27T02:07:57.989Z,55.61
2023-04-27T02:11:07.418Z,54.68
2023-04-27T02:14:13.116Z,55.71
2023-04-27T02:17:19.823Z,55.81
2023-04-27T02:20:25.981Z,55.35
2023-04-27T02:23:33.153Z,56.54
2023-04-27T02:26:43.202Z,55.39
2023-04-27T02:29:50.088Z,56.30
2023-04-27T02:32:56.460Z,55.24
2023-04-27T02:36:03.898Z,56.51
2023-04-27T02:39:09.403Z,55.77
2023-04-27T02:42:21.305Z,55.91
2023-04-27T02:45:26.811Z,56.04
2023-04-27T02:48:34.993Z,55.67
2023-04-27T02:51:43.283Z,55.42
2023-04-27T02:54:49.857Z,55.80
2023-04-27T02:57:58.352Z,54.88
2023-04-27T03:01:05.052Z,56.21
2023-04-27T03:04:11.202Z,56.54
2023-04-27T03:07:17.703Z,55.68
2023-04-27T03:10:23.400Z,56.39
2023-04-27T03:13:38.829Z,55.34
2023-04-27T03:16:45.255Z,55.43
2023-04-27T03:19:52.836Z,56.63
2023-04-27T03:22:58.339Z,56.85
2023-04-27T03:26:04.757Z,56.40
2023-04-27T03:29:13.326Z,56.94
2023-04-27T03:32:19.788Z,56.83
2023-04-27T03:35:25.366Z,56.64
2023-04-27T03:38:32.370Z,57.22
2023-04-27T03:41:37.921Z,57.73
2023-04-27T03:44:47.040Z,58.05
2023-04-27T03:47:53.492Z,56.83
2023-04-27T03:50:59.991Z,57.27
2023-04-27T03:54:05.914Z,57.51
2023-04-27T03:57:12.348Z,57.54
2023-04-27T04:00:21.547Z,58.30
2023-04-27T04:03:28.285Z,58.08
2023-04-27T04:06:34.090Z,57.98
2023-04-27T04:09:40.493Z,58.00
2023-04-27T04:12:46.037Z,57.56
2023-04-27T04:16:05.199Z,56.33
2023-04-27T04:19:12.300Z,57.14
2023-04-27T04:22:18.823Z,56.29
2023-04-27T04:25:26.390Z,56.22
2023-04-27T04:28:33.564Z,55.72
2023-04-27T04:31:42.572Z,55.79
2023-04-27T04:34:53.722Z,56.33
2023-04-27T04:38:00.805Z,55.87
2023-04-27T04:41:08.636Z,56.97
2023-04-27T04:44:14.226Z,56.81
2023-04-27T04:47:23.421Z,54.91
2023-04-27T04:50:31.331Z,55.78
2023-04-27T04:53:38.299Z,55.24
2023-04-27T04:56:43.781Z,54.87
2023-04-27T04:59:50.207Z,55.76
2023-04-27T05:02:59.065Z,54.93
2023-04-27T05:06:05.654Z,54.15
2023-04-27T05:09:11.457Z,54.67
2023-04-27T05:12:18.224Z,54.66
2023-04-27T05:15:23.694Z,54.62
2023-04-27T05:18:32.853Z,55.22
2023-04-27T05:21:38.645Z,53.78
2023-04-27T05:24:44.930Z,54.52
2023-04-27T05:27:50.429Z,53.81
2023-04-27T05:30:56.774Z,53.41
2023-04-27T05:34:05.078Z,53.17
2023-04-27T05:37:11.912Z,53.74
2023-04-27T05:40:18.681Z,53.53
2023-04-27T05:43:25.343Z,54.04
2023-04-27T05:46:30.884Z,53.12
2023-04-27T05:49:40.097Z,52.50
2023-04-27T05:52:45.563Z,52.54
2023-04-27T05:55:51.833Z,53.05
2023-04-27T05:58:57.264Z,50.24
2023-04-27T06:02:03.630Z,49.99
2023-04-27T06:05:14.113Z,50.81
2023-04-27T06:08:20.721Z,51.34
2023-04-27T06:11:26.263Z,51.21
2023-04-27T06:14:32.593Z,50.39
2023-04-27T06:17:38.317Z,50.13
2023-04-27T06:20:47.541Z,49.44
2023-04-27T06:23:53.191Z,49.71
2023-04-27T06:26:59.560Z,49.62
2023-04-27T06:30:05.366Z,48.77
2023-04-27T06:33:12.656Z,47.97
2023-04-27T06:36:21.510Z,47.97
2023-04-27T06:39:28.137Z,47.87
2023-04-27T06:42:33.849Z,47.50
2023-04-27T06:45:40.716Z,47.23
2023-04-27T06:48:46.741Z,47.50
2023-04-27T06:51:56.189Z,46.94
2023-04-27T06:55:01.885Z,47.13
2023-04-27T06:58:08.590Z,46.89
2023-04-27T07:01:14.215Z,45.76
2023-04-27T07:04:21.084Z,45.82
2023-04-27T07:07:29.625Z,44.59
2023-04-27T07:10:36.310Z,44.98
2023-04-27T07:13:42.173Z,44.08
2023-04-27T07:16:48.529Z,44.93
2023-04-27T07:19:54.889Z,44.60
2023-04-27T07:23:04.323Z,45.03
2023-04-27T07:26:10.276Z,44.81
2023-04-27T07:29:26.568Z,44.17
2023-04-27T07:32:32.633Z,43.33
2023-04-27T07:35:41.780Z,43.19
2023-04-27T07:38:50.133Z,43.26
2023-04-27T07:41:56.821Z,42.72
2023-04-27T07:45:02.373Z,41.27
2023-04-27T07:48:10.062Z,41.52
2023-04-27T07:51:16.709Z,41.19
2023-04-27T07:54:25.873Z,40.37
2023-04-27T07:57:31.872Z,39.94
2023-04-27T08:00:38.654Z,40.95
2023-04-27T08:03:44.471Z,40.59
2023-04-27T08:06:54.229Z,40.06
2023-04-27T08:10:03.345Z,39.54
2023-04-27T08:13:10.326Z,39.56
2023-04-27T08:16:15.848Z,38.97
2023-04-27T08:19:22.284Z,37.71
2023-04-27T08:22:27.793Z,38.02
2023-04-27T08:25:38.743Z,37.84
2023-04-27T08:28:44.301Z,38.23
2023-04-27T08:31:51.021Z,37.78
2023-04-27T08:34:56.551Z,38.97
2023-04-27T08:38:02.986Z,37.21
2023-04-27T08:41:21.347Z,36.97
2023-04-27T08:44:28.599Z,38.09
2023-04-27T08:47:42.518Z,38.24
2023-04-27T08:50:54.753Z,38.00
2023-04-27T08:54:02.419Z,38.09
2023-04-27T08:57:16.602Z,39.07
2023-04-27T09:00:24.683Z,37.49
2023-04-27T09:03:31.488Z,34.46
2023-04-27T09:06:38.973Z,35.72
2023-04-27T09:09:45.808Z,35.54
2023-04-27T09:13:02.556Z,36.95
2023-04-27T09:16:09.733Z,36.78
2023-04-27T09:19:15.969Z,36.91
2023-04-27T09:22:22.435Z,37.28
2023-04-27T09:25:34.890Z,37.32
2023-04-27T09:28:52.149Z,37.49
2023-04-27T09:31:57.742Z,36.40
2023-04-27T09:35:24.782Z,36.85
2023-04-27T09:38:32.971Z,37.09
2023-04-27T09:41:40.536Z,36.25
2023-04-27T09:44:48.839Z,36.03
2023-04-27T09:47:56.137Z,34.39
2023-04-27T09:51:01.888Z,34.77
2023-04-27T09:54:10.172Z,34.50
2023-04-27T09:57:36.837Z,35.59
2023-04-27T10:01:07.671Z,35.74
2023-04-27T10:04:46.074Z,35.56
2023-04-27T10:07:59.004Z,35.76
2023-04-27T10:11:04.727Z,35.53
2023-04-27T10:14:19.197Z,35.59
2023-04-27T10:17:35.350Z,34.91
2023-04-27T10:20:42.225Z,35.66
2023-04-27T10:23:52.168Z,34.82
2023-04-27T10:27:07.270Z,34.78
2023-04-27T10:30:20.969Z,32.47
2023-04-27T10:33:30.273Z,33.03
2023-04-27T10:36:41.238Z,33.19
2023-04-27T10:39:50.177Z,33.54
2023-04-27T10:42:57.224Z,34.39
2023-04-27T10:46:16.049Z,33.47
2023-04-27T10:49:25.260Z,33.28
2023-04-27T10:52:36.518Z,33.63
2023-04-27T10:55:42.423Z,34.56
2023-04-27T10:58:49.673Z,34.95
2023-04-27T11:01:58.455Z,34.40
2023-04-27T11:05:19.297Z,34.32
2023-04-27T11:08:25.044Z,32.83
2023-04-27T11:11:31.794Z,33.31
2023-04-27T11:14:38.916Z,33.03
2023-04-27T11:17:45.804Z,34.42
2023-04-27T11:20:58.531Z,34.28
2023-04-27T11:24:11.276Z,33.26
2023-04-27T11:27:18.274Z,33.67
2023-04-27T11:30:27.235Z,32.54
2023-04-27T11:33:33.269Z,32.91
2023-04-27T11:36:44.101Z,32.66
2023-04-27T11:39:50.094Z,32.71
2023-04-27T11:43:04.465Z,32.37
2023-04-27T11:46:11.408Z,33.44
2023-04-27T11:49:18.062Z,34.57
2023-04-27T11:52:32.167Z,34.92
2023-04-27T11:55:41.570Z,36.85
2023-04-27T11:58:47.896Z,36.51
2023-04-27T12:01:55.339Z,35.99
2023-04-27T12:05:03.259Z,36.43
2023-04-27T12:08:13.122Z,36.12
2023-04-27T12:11:21.819Z,35.24
2023-04-27T12:14:28.421Z,35.25
2023-04-27T12:17:34.159Z,35.06
2023-04-27T12:20:42.162Z,33.66
2023-04-27T12:23:51.099Z,32.56
2023-04-27T12:26:59.730Z,32.31
2023-04-27T12:30:05.579Z,32.86
2023-04-27T12:33:12.416Z,33.34
2023-04-27T12:36:18.255Z,33.94
2023-04-27T12:39:27.945Z,34.68
2023-04-27T12:42:33.632Z,34.44
2023-04-27T12:45:40.250Z,35.09
2023-04-27T12:48:46.715Z,35.13
2023-04-27T12:51:54.378Z,34.30
2023-04-27T12:55:04.974Z,35.64
2023-04-27T12:58:11.591Z,35.43
2023-04-27T13:01:17.860Z,35.08
2023-04-27T13:04:25.147Z,35.04
2023-04-27T13:07:31.386Z,34.85
2023-04-27T13:10:41.706Z,34.71
2023-04-27T13:13:48.301Z,35.44
2023-04-27T13:16:57.241Z,35.49
2023-04-27T13:20:03.304Z,34.34
2023-04-27T13:23:10.481Z,34.50
2023-04-27T13:26:19.518Z,34.73
2023-04-27T13:29:27.493Z,33.55
2023-04-27T13:32:34.046Z,34.41
2023-04-27T13:35:40.679Z,33.47
2023-04-27T13:38:46.837Z,33.14
2023-04-27T13:41:57.926Z,33.35
2023-04-27T13:45:05.227Z,33.80
2023-04-27T13:48:14.417Z,32.68
2023-04-27T13:51:20.595Z,32.25
2023-04-27T13:54:27.614Z,32.30
2023-04-27T13:57:36.609Z,32.54
2023-04-27T14:00:43.304Z,32.86
2023-04-27T14:03:49.269Z,33.08
2023-04-27T14:06:56.321Z,32.39
2023-04-27T14:10:02.143Z,32.91
2023-04-27T14:13:11.692Z,33.74
2023-04-27T14:16:17.633Z,34.13
2023-04-27T14:19:27.702Z,34.25
2023-04-27T14:22:33.690Z,34.76
2023-04-27T14:25:40.348Z,34.86
2023-04-27T14:28:50.307Z,35.04
2023-04-27T14:31:58.016Z,34.77
2023-04-27T14:35:03.943Z,34.96
2023-04-27T14:38:10.860Z,35.01
2023-04-27T14:41:16.868Z,35.16
2023-04-27T14:44:27.094Z,35.72
2023-04-27T14:47:33.205Z,34.83
2023-04-27T14:50:40.063Z,35.51
2023-04-27T14:53:47.129Z,34.84
2023-04-27T14:56:53.768Z,34.93
2023-04-27T15:00:06.667Z,35.59
2023-04-27T15:03:13.561Z,35.47
2023-04-27T15:06:19.917Z,34.97
2023-04-27T15:09:26.942Z,35.80
2023-04-27T15:12:32.991Z,35.75
2023-04-27T15:15:45.734Z,35.54
2023-04-27T15:18:51.766Z,35.91
2023-04-27T15:21:58.194Z,36.45
2023-04-27T15:25:05.473Z,35.94
2023-04-27T15:28:12.163Z,34.85
2023-04-27T15:31:20.642Z,35.66
2023-04-27T15:34:27.291Z,35.18
2023-04-27T15:37:33.229Z,34.64
2023-04-27T15:40:42.185Z,34.62
2023-04-27T15:43:47.865Z,34.82
2023-04-27T15:46:57.341Z,34.24
2023-04-27T15:50:03.628Z,35.19
2023-04-27T15:53:10.234Z,34.99
2023-04-27T15:56:16.620Z,34.95
2023-04-27T15:59:23.238Z,36.07
2023-04-27T16:02:33.125Z,35.66
2023-04-27T16:05:42.748Z,35.66
2023-04-27T16:08:48.651Z,35.38
2023-04-27T16:11:55.963Z,36.28
2023-04-27T16:15:01.840Z,34.46
2023-04-27T16:18:11.472Z,34.70
2023-04-27T16:21:18.770Z,34.93
2023-04-27T16:24:25.514Z,35.31
2023-04-27T16:27:31.390Z,35.07
2023-04-27T16:30:40.257Z,35.30
2023-04-27T16:33:50.525Z,36.02
2023-04-27T16:36:58.408Z,36.52
2023-04-27T16:40:07.071Z,35.61
2023-04-27T16:43:14.089Z,36.00
2023-04-27T16:46:20.204Z,36.08
2023-04-27T16:49:29.926Z,36.88
2023-04-27T16:52:36.087Z,36.73
2023-04-27T16:55:45.330Z,36.15
2023-04-27T16:58:51.399Z,36.91
2023-04-27T17:02:06.010Z,36.83
2023-04-27T17:05:22.224Z,36.49
2023-04-27T17:08:29.381Z,36.94
2023-04-27T17:11:35.192Z,36.52
2023-04-27T17:14:42.907Z,36.67
2023-04-27T17:17:48.924Z,36.54
2023-04-27T17:21:00.118Z,36.65
2023-04-27T17:24:07.186Z,37.34
2023-04-27T17:27:14.465Z,36.92
2023-04-27T17:30:20.317Z,37.73
2023-04-27T17:33:28.394Z,37.32
2023-04-27T17:36:37.461Z,37.01
2023-04-27T17:39:44.500Z,37.82
2023-04-27T17:42:56.668Z,36.94
2023-04-27T17:46:04.072Z,38.08
2023-04-27T17:49:13.983Z,37.30
2023-04-27T17:52:24.239Z,37.00
2023-04-27T17:55:30.417Z,37.55
2023-04-27T17:58:38.023Z,37.80
2023-04-27T18:01:48.666Z,38.10
2023-04-27T18:04:58.704Z,38.61
2023-04-27T18:08:07.617Z,38.77
2023-04-27T18:11:14.675Z,38.08
2023-04-27T18:14:20.837Z,38.41
2023-04-27T18:17:29.038Z,39.13
2023-04-27T18:20:35.297Z,38.69
2023-04-27T18:23:46.421Z,38.80
2023-04-27T18:26:53.839Z,39.20
2023-04-27T18:30:00.717Z,39.24
2023-04-27T18:33:07.559Z,38.77
2023-04-27T18:36:15.960Z,38.87
2023-04-27T18:39:25.166Z,38.34
2023-04-27T18:42:34.889Z,38.50
2023-04-27T18:45:41.063Z,38.73
2023-04-27T18:48:50.155Z,38.62
2023-04-27T18:51:56.245Z,38.71
2023-04-27T18:55:06.728Z,39.33
2023-04-27T18:58:13.051Z,38.67
2023-04-27T19:01:24.328Z,38.88
2023-04-27T19:04:31.950Z,38.92
2023-04-27T19:07:41.500Z,38.33
2023-04-27T19:10:54.972Z,38.74
2023-04-27T19:14:02.167Z,38.43
2023-04-27T19:17:08.753Z,38.90
2023-04-27T19:20:15.812Z,39.23
2023-04-27T19:23:22.490Z,39.10
2023-04-27T19:26:32.451Z,39.92
2023-04-27T19:29:54.428Z,39.81
2023-04-27T19:33:05.045Z,39.86
2023-04-27T19:36:12.483Z,39.73
2023-04-27T19:39:22.663Z,40.45
2023-04-27T19:42:34.224Z,40.49
2023-04-27T19:45:42.281Z,40.55
2023-04-27T19:48:49.024Z,40.57
2023-04-27T19:51:56.746Z,40.94
2023-04-27T19:55:03.653Z,41.27
2023-04-27T19:58:13.669Z,41.10
2023-04-27T20:01:22.242Z,41.34
2023-04-27T20:04:29.233Z,41.77
2023-04-27T20:07:35.744Z,41.85
2023-04-27T20:10:43.779Z,42.03
2023-04-27T20:13:53.026Z,42.23
2023-04-27T20:16:59.856Z,42.33
2023-04-27T20:20:10.352Z,42.22
2023-04-27T20:23:19.856Z,42.21
2023-04-27T20:26:26.422Z,42.12
2023-04-27T20:29:36.738Z,42.62
2023-04-27T20:32:42.726Z,42.35
2023-04-27T20:35:55.525Z,42.60
2023-04-27T20:39:05.796Z,42.70
2023-04-27T20:42:13.209Z,42.66
2023-04-27T20:45:22.166Z,42.67
2023-04-27T20:48:30.139Z,42.71
2023-04-27T20:51:36.903Z,42.76
2023-04-27T20:54:44.591Z,42.77
2023-04-27T20:57:50.962Z,42.62
2023-04-27T21:01:00.794Z,42.81
2023-04-27T21:04:09.637Z,43.00
2023-04-27T21:07:16.373Z,43.47
2023-04-27T21:10:22.315Z,43.42
2023-04-27T21:13:28.981Z,43.03
2023-04-27T21:16:37.787Z,43.09
2023-04-27T21:19:44.995Z,43.30
2023-04-27T21:22:50.868Z,43.35
2023-04-27T21:25:57.520Z,43.79
2023-04-27T21:29:05.961Z,43.77
2023-04-27T21:32:16.095Z,44.03
2023-04-27T21:35:21.960Z,44.92
2023-04-27T21:38:28.693Z,45.09
2023-04-27T21:41:34.445Z,44.83
2023-04-27T21:44:41.272Z,45.78
2023-04-27T21:47:49.939Z,45.94
2023-04-27T21:50:56.521Z,45.49
2023-04-27T21:54:02.179Z,46.34
2023-04-27T21:57:08.776Z,46.81
2023-04-27T22:00:17.619Z,46.69
2023-04-27T22:03:27.106Z,46.81
2023-04-27T22:06:33.965Z,46.53
2023-04-27T22:09:40.249Z,46.70
2023-04-27T22:12:47.196Z,46.89
2023-04-27T22:15:53.636Z,46.87
2023-04-27T22:19:02.999Z,46.98
2023-04-27T22:22:10.239Z,47.02
2023-04-27T22:25:16.356Z,46.59
2023-04-27T22:28:23.003Z,46.31
2023-04-27T22:31:28.726Z,46.21
2023-04-27T22:34:38.439Z,46.42
2023-04-27T22:37:44.875Z,46.64
2023-04-27T22:40:51.426Z,46.48
2023-04-27T22:43:57.296Z,46.80
2023-04-27T22:47:04.702Z,46.87
2023-04-27T22:50:14.610Z,46.75
2023-04-27T22:53:21.397Z,47.03
2023-04-27T22:56:27.096Z,46.95
2023-04-27T22:59:33.420Z,46.54
2023-04-27T23:02:39.275Z,47.09
2023-04-27T23:05:48.602Z,47.71
2023-04-27T23:08:54.100Z,47.14
2023-04-27T23:12:01.329Z,47.48
2023-04-27T23:15:07.412Z,47.32
2023-04-27T23:18:13.809Z,47.17
2023-04-27T23:21:22.150Z,47.58
2023-04-27T23:24:28.569Z,47.68
2023-04-27T23:27:34.330Z,48.07
2023-04-27T23:30:41.035Z,48.27
2023-04-27T23:33:46.571Z,48.73
2023-04-27T23:36:55.664Z,48.54
2023-04-27T23:40:01.369Z,49.28
2023-04-27T23:43:07.982Z,49.15
2023-04-27T23:46:13.474Z,49.05
2023-04-27T23:49:19.784Z,49.35
2023-04-27T23:52:28.048Z,49.04
2023-04-27T23:55:36.835Z,49.14
2023-04-27T23:58:42.323Z,49.26
